Time;durP1;ratioP1;P1;durP2;ratioP2;P2;SDS_P1;SDS_P2;PMS_P1;PMS_P2;Temp;Humidity;BMP_temperature;BMP_pressure;BME280_temperature;BME280_humidity;BME280_pressure;Samples;Min_cycle;Max_cycle;Signal;HPM_P1;HPM_P2
2021/08/15 00:00:12;;;;;;;11.45;2.03;;;;;;;29.86;51.25;100865.28;4978428;28;65650;-37
2021/08/15 00:02:43;;;;;;;4.85;1.48;;;;;;;30.08;51.48;100909.09;4985253;28;69778;-37
2021/08/15 00:05:13;;;;;;;10.00;1.83;;;;;;;30.09;52.10;100914.31;4961246;28;66711;-38
2021/08/15 00:07:44;;;;;;;3.83;1.58;;;;;;;30.11;51.72;100914.91;5002392;28;69530;-39
2021/08/15 00:10:15;;;;;;;1.92;1.60;;;;;;;30.00;52.79;100908.28;4982956;28;66203;-38
2021/08/15 00:12:46;;;;;;;4.25;1.60;;;;;;;30.12;52.45;100916.59;4979813;28;70530;-38
2021/08/15 00:15:17;;;;;;;4.57;1.53;;;;;;;30.18;52.28;100931.97;4982283;28;66443;-39
2021/08/15 00:17:48;;;;;;;3.97;1.83;;;;;;;30.18;53.71;100926.53;5000810;28;70555;-37
2021/08/15 00:20:21;;;;;;;5.45;2.65;;;;;;;30.25;54.93;100921.94;4982022;28;43482;-38
2021/08/15 00:22:52;;;;;;;5.70;2.88;;;;;;;30.32;57.30;100923.81;4959303;28;69522;-37
2021/08/15 00:25:22;;;;;;;2.92;2.72;;;;;;;30.33;56.95;100929.00;4980378;28;65519;-36
2021/08/15 00:27:53;;;;;;;7.97;3.08;;;;;;;30.41;58.23;100936.06;4992033;28;69866;-37
2021/08/15 00:30:24;;;;;;;6.73;3.60;;;;;;;30.42;58.02;100932.28;4995021;28;66418;-36
2021/08/15 00:32:55;;;;;;;3.28;3.08;;;;;;;30.43;59.39;100933.97;4982169;28;69378;-36
2021/08/15 00:35:25;;;;;;;9.18;3.80;;;;;;;30.51;58.66;100941.84;4981316;28;65857;-36
2021/08/15 00:37:56;;;;;;;4.20;3.47;;;;;;;30.50;58.67;100937.44;4981491;28;70622;-36
2021/08/15 00:40:27;;;;;;;8.75;4.32;;;;;;;30.52;58.98;100951.59;4987358;28;65341;-37
2021/08/15 00:43:02;;;;;;;6.47;4.13;;;;;;;30.55;59.33;100947.63;4969141;28;70124;-37
2021/08/15 00:45:32;;;;;;;12.75;3.78;;;;;;;30.58;60.63;100953.44;4979223;28;66364;-36
2021/08/15 00:48:13;;;;;;;4.93;4.23;;;;;;;30.63;60.83;100960.94;4984455;28;69668;-37
2021/08/15 00:50:43;;;;;;;6.78;4.47;;;;;;;30.70;60.42;100967.97;4977405;28;66618;-38
2021/08/15 00:53:14;;;;;;;12.23;5.07;;;;;;;30.76;60.67;100965.41;4974617;28;69024;-38
2021/08/15 00:55:45;;;;;;;19.27;5.20;;;;;;;30.77;60.32;100967.91;4976477;28;65285;-38
2021/08/15 00:58:18;;;;;;;9.93;4.50;;;;;;;30.83;61.15;100966.25;4974171;28;68390;-37
2021/08/15 01:00:52;;;;;;;7.65;4.03;;;;;;;30.89;61.23;100971.63;4984819;28;66236;-40
2021/08/15 01:03:22;;;;;;;;;;;;;;;30.70;63.05;100972.53;4976483;28;70174;-38
2021/08/15 01:05:54;;;;;;;4.80;4.35;;;;;;;30.95;61.02;100972.63;4973296;28;65766;-38
2021/08/15 01:08:26;;;;;;;9.15;4.20;;;;;;;30.97;61.88;100967.81;4974736;28;70214;-39
2021/08/15 01:10:58;;;;;;;5.13;4.38;;;;;;;31.01;62.28;100969.06;4971900;28;66198;-37
2021/08/15 01:13:50;;;;;;;3.58;3.28;;;;;;;31.02;61.89;100970.69;4972394;28;70265;-38
2021/08/15 01:16:22;;;;;;;7.82;4.05;;;;;;;31.02;62.33;100969.88;4972336;28;65322;-38
2021/08/15 01:18:55;;;;;;;7.07;3.72;;;;;;;31.09;61.83;100981.47;4973792;28;70005;-37
2021/08/15 01:21:25;;;;;;;5.72;4.13;;;;;;;31.10;62.02;100977.75;4972196;28;65696;-39
2021/08/15 01:23:56;;;;;;;3.50;3.20;;;;;;;31.11;62.12;100979.41;4954702;28;69386;-39
2021/08/15 01:26:28;;;;;;;6.15;3.50;;;;;;;31.20;61.71;100986.19;4988011;28;65782;-38
2021/08/15 01:28:58;;;;;;;;;;;;;;;31.01;62.58;100992.59;4970521;28;70234;-39
2021/08/15 01:31:35;;;;;;;3.35;3.10;;;;;;;31.26;61.26;100992.63;4971611;28;65351;-39
2021/08/15 01:34:06;;;;;;;5.65;3.80;;;;;;;31.31;61.16;100998.22;4972132;28;68904;-39
2021/08/15 01:36:37;;;;;;;4.45;3.70;;;;;;;31.36;61.31;100995.69;4975943;28;66041;-38
2021/08/15 01:39:08;;;;;;;3.80;3.50;;;;;;;31.37;60.98;100989.22;4989613;28;69924;-39
2021/08/15 01:41:39;;;;;;;6.43;4.93;;;;;;;31.41;60.95;100995.88;4974815;28;66028;-38
2021/08/15 01:44:11;;;;;;;6.50;4.45;;;;;;;31.39;60.96;101001.50;4956259;28;70160;-37
2021/08/15 01:46:41;;;;;;;9.30;4.63;;;;;;;31.42;60.88;101002.13;4972207;28;66343;-36
2021/08/15 01:49:12;;;;;;;7.85;3.97;;;;;;;31.39;61.20;101003.38;4988676;28;70272;-37
2021/08/15 01:51:46;;;;;;;5.05;3.85;;;;;;;31.42;61.00;101008.38;4971679;28;66988;-36
2021/08/15 01:54:17;;;;;;;4.18;3.85;;;;;;;31.39;61.39;101003.38;4986291;28;69099;-38
2021/08/15 01:56:48;;;;;;;5.68;4.15;;;;;;;31.48;61.23;101006.66;4976010;28;66620;-39
2021/08/15 01:59:18;;;;;;;5.50;4.93;;;;;;;31.49;60.81;101009.16;4972424;28;70728;-39
2021/08/15 02:01:50;;;;;;;5.75;5.07;;;;;;;31.48;61.24;101012.06;4970989;28;66406;-37
2021/08/15 02:04:23;;;;;;;5.65;5.15;;;;;;;31.22;60.74;100969.72;4973624;28;70793;-38
2021/08/15 02:06:53;;;;;;;5.20;4.80;;;;;;;31.52;61.21;101019.56;4963487;28;66129;-38
2021/08/15 02:09:24;;;;;;;9.65;4.82;;;;;;;31.55;61.47;101019.09;4978046;28;70515;-38
2021/08/15 02:11:55;;;;;;;10.07;5.20;;;;;;;31.59;61.65;101014.06;4990537;28;65582;-38
2021/08/15 02:14:26;;;;;;;5.30;4.90;;;;;;;31.54;61.92;101011.22;4978831;28;68924;-39
2021/08/15 02:16:58;;;;;;;7.93;4.77;;;;;;;31.51;62.36;101020.63;4977031;28;66814;-37
2021/08/15 02:19:28;;;;;;;5.95;5.45;;;;;;;31.44;62.13;101017.13;4980722;28;70175;-37
2021/08/15 02:22:19;;;;;;;7.80;4.97;;;;;;;31.41;62.62;101016.75;4990538;28;65908;-38
2021/08/15 02:24:50;;;;;;;6.88;3.88;;;;;;;31.32;62.14;101018.88;4970891;28;69948;-41
2021/08/15 02:27:20;;;;;;;5.13;4.73;;;;;;;31.32;62.46;101025.09;4968210;28;66137;-37
2021/08/15 02:29:51;;;;;;;5.20;4.07;;;;;;;31.25;62.29;101023.47;4990309;28;69542;-36
2021/08/15 02:32:22;;;;;;;4.35;3.92;;;;;;;31.25;62.07;101026.19;4975439;28;65256;-39
2021/08/15 02:34:53;;;;;;;4.25;3.38;;;;;;;31.27;61.75;101026.81;4971507;28;70435;-38
2021/08/15 02:37:23;;;;;;;7.40;3.67;;;;;;;31.19;61.68;101016.25;4985260;28;65494;-37
2021/08/15 02:39:58;;;;;;;4.80;3.13;;;;;;;31.26;61.31;101027.84;4977836;28;69404;-37
2021/08/15 02:42:31;;;;;;;4.32;3.90;;;;;;;31.00;61.91;100983.63;4974655;28;66199;-37
2021/08/15 02:45:03;;;;;;;7.78;4.18;;;;;;;31.24;61.51;101027.25;4981233;28;69736;-37
2021/08/15 02:47:33;;;;;;;8.15;4.10;;;;;;;31.24;62.22;101030.78;4974276;28;65857;-37
2021/08/15 02:50:05;;;;;;;10.45;3.50;;;;;;;31.31;62.31;101028.03;4968597;28;69197;-38
2021/08/15 02:52:36;;;;;;;25.67;3.63;;;;;;;31.32;62.41;101018.88;4958119;28;65778;-39
2021/08/15 02:55:07;;;;;;;17.75;4.10;;;;;;;31.36;61.78;101031.75;4977034;28;69644;-39
2021/08/15 02:57:38;;;;;;;16.47;3.47;;;;;;;31.37;62.55;101032.59;4976784;28;66708;-37
2021/08/15 03:00:11;;;;;;;9.30;3.00;;;;;;;31.44;61.43;101024.44;4974781;28;70203;-37
2021/08/15 03:02:42;;;;;;;14.85;3.42;;;;;;;31.41;61.57;101022.97;4972463;28;65594;-40
2021/08/15 03:05:13;;;;;;;5.15;2.95;;;;;;;31.43;62.08;101026.31;4971045;28;70677;-41
2021/08/15 03:07:43;;;;;;;24.17;2.85;;;;;;;31.43;62.41;101015.47;4974039;28;65461;-37
2021/08/15 03:10:15;;;;;;;6.63;3.20;;;;;;;31.54;61.63;101022.88;4985887;28;70091;-37
2021/08/15 03:12:45;;;;;;;14.60;2.97;;;;;;;31.54;61.46;101001.19;4961085;28;66075;-37
2021/08/15 03:15:16;;;;;;;12.25;2.50;;;;;;;31.65;61.51;101009.63;4962302;28;70057;-38
2021/08/15 03:17:47;;;;;;;14.90;3.00;;;;;;;31.69;61.44;101008.97;4976283;28;66111;-38
2021/08/15 03:20:19;;;;;;;4.45;2.83;;;;;;;31.73;60.49;101003.91;4977852;28;70130;-38
2021/08/15 03:22:49;;;;;;;6.47;2.67;;;;;;;31.76;60.67;100998.03;4973965;28;65166;-38
2021/08/15 03:25:21;;;;;;;3.53;2.83;;;;;;;31.78;60.43;100990.53;4983747;28;70758;-37
2021/08/15 03:28:01;;;;;;;10.30;3.33;;;;;;;31.78;60.21;100979.69;4976608;28;64870;-37
2021/08/15 03:30:32;;;;;;;4.20;2.83;;;;;;;31.88;59.90;100985.44;4975581;28;69788;-36
2021/08/15 03:33:04;;;;;;;9.98;3.53;;;;;;;31.97;59.73;100975.97;4967236;28;66424;-40
2021/08/15 03:35:34;;;;;;;4.90;3.70;;;;;;;32.01;59.45;100977.19;4971046;28;70115;-38
2021/08/15 03:38:05;;;;;;;3.67;3.38;;;;;;;31.99;59.36;100965.72;4969254;28;65439;-39
2021/08/15 03:40:36;;;;;;;4.95;4.00;;;;;;;32.02;60.36;100970.69;4966004;28;70057;-39
2021/08/15 03:43:06;;;;;;;5.90;3.95;;;;;;;31.94;59.88;100956.59;4971154;28;65928;-38
2021/08/15 03:45:38;;;;;;;9.88;4.63;;;;;;;31.99;60.01;100964.88;4972535;28;70822;-37
2021/08/15 03:48:10;;;;;;;14.10;4.32;;;;;;;31.97;59.51;100967.81;4977616;28;65726;-39
2021/08/15 03:50:41;;;;;;;4.25;3.70;;;;;;;32.02;59.54;100975.28;4971829;28;69512;-38
2021/08/15 03:53:12;;;;;;;11.63;4.45;;;;;;;32.01;59.85;100979.91;4972610;28;66661;-38
2021/08/15 03:55:43;;;;;;;7.53;3.55;;;;;;;32.01;59.62;100968.19;4970111;28;69244;-39
2021/08/15 03:58:14;;;;;;;4.68;4.28;;;;;;;32.04;59.62;100963.16;4976951;28;66684;-39
2021/08/15 04:00:44;;;;;;;7.88;4.00;;;;;;;32.09;59.68;100962.47;4976538;28;70153;-41
2021/08/15 04:03:15;;;;;;;9.60;4.43;;;;;;;32.05;59.01;100948.53;4973583;28;65763;-41
2021/08/15 04:05:46;;;;;;;6.50;4.88;;;;;;;32.15;58.35;100949.88;4968976;28;70459;-40
2021/08/15 04:08:16;;;;;;;7.07;5.07;;;;;;;32.21;58.69;100946.25;4973907;28;66523;-42
2021/08/15 04:10:47;;;;;;;6.07;4.53;;;;;;;32.29;58.88;100954.09;4972347;28;70147;-39
2021/08/15 04:13:18;;;;;;;5.97;5.35;;;;;;;32.34;59.03;100956.94;4957479;28;65677;-39
2021/08/15 04:15:48;;;;;;;5.90;5.40;;;;;;;32.40;58.37;100945.19;4971740;28;69802;-41
2021/08/15 04:18:19;;;;;;;8.65;6.07;;;;;;;32.45;58.53;100950.72;4977430;28;65521;-40
2021/08/15 04:20:49;;;;;;;12.45;6.28;;;;;;;32.51;58.22;100949.00;4972746;28;70150;-42
2021/08/15 04:23:23;;;;;;;8.15;7.07;;;;;;;32.56;58.37;100942.91;4975255;28;65532;-41
2021/08/15 04:25:54;;;;;;;9.10;7.35;;;;;;;32.54;58.55;100935.00;4973830;28;70111;-44
2021/08/15 04:28:24;;;;;;;7.97;7.35;;;;;;;32.51;57.97;100932.72;4973008;28;66326;-41
2021/08/15 04:30:56;;;;;;;7.90;7.05;;;;;;;32.47;57.90;100937.78;4976583;28;69694;-42
2021/08/15 04:33:27;;;;;;;;;;;;;;;32.26;57.96;100935.53;4980598;28;65719;-41
2021/08/15 04:35:59;;;;;;;7.78;6.97;;;;;;;32.41;58.09;100935.97;4979863;28;70872;-48
2021/08/15 04:38:30;;;;;;;9.63;8.10;;;;;;;32.40;58.26;100934.31;4985608;28;66500;-39
2021/08/15 04:41:00;;;;;;;10.00;8.18;;;;;;;32.38;58.66;100939.16;4972429;28;70348;-39
2021/08/15 04:43:32;;;;;;;8.57;7.30;;;;;;;32.36;58.21;100941.25;4974398;28;66430;-39
2021/08/15 04:46:04;;;;;;;14.40;7.53;;;;;;;32.33;58.48;100933.56;4982858;28;70323;-39
2021/08/15 04:48:35;;;;;;;11.15;7.70;;;;;;;32.36;58.59;100938.53;4982192;28;67038;-40
2021/08/15 04:51:05;;;;;;;12.48;7.65;;;;;;;32.36;58.47;100943.16;4977534;28;69287;-39
2021/08/15 04:53:36;;;;;;;8.00;7.35;;;;;;;32.34;58.12;100935.22;4977803;28;66433;-40
2021/08/15 04:56:06;;;;;;;12.45;6.90;;;;;;;32.35;58.19;100922.50;4981593;28;70229;-38
2021/08/15 04:58:38;;;;;;;10.93;7.38;;;;;;;32.37;58.31;100923.91;4985111;28;67014;-39
2021/08/15 05:01:08;;;;;;;7.57;6.88;;;;;;;32.36;58.50;100919.53;4985777;28;69299;-39
2021/08/15 05:03:39;;;;;;;10.30;6.05;;;;;;;32.40;58.33;100918.03;4977808;28;66317;-41
2021/08/15 05:06:10;;;;;;;7.18;6.50;;;;;;;32.39;58.24;100916.34;4971152;28;70507;-39
2021/08/15 05:08:40;;;;;;;6.95;6.22;;;;;;;32.37;58.54;100907.59;4980983;28;65388;-39
2021/08/15 05:11:11;;;;;;;9.90;5.90;;;;;;;32.32;58.72;100907.50;4971233;28;69137;-39
2021/08/15 05:13:41;;;;;;;9.95;6.05;;;;;;;32.31;58.59;100891.41;4987828;28;65434;-38
2021/08/15 05:16:12;;;;;;;10.40;6.05;;;;;;;32.27;58.35;100897.31;4976668;28;69221;-38
2021/08/15 05:18:43;;;;;;;16.02;6.32;;;;;;;32.23;57.20;100887.13;4996922;28;65918;-38
2021/08/15 05:21:13;;;;;;;24.65;5.70;;;;;;;32.25;57.03;100899.41;4977876;28;70079;-38
2021/08/15 05:23:44;;;;;;;11.93;5.60;;;;;;;32.22;55.60;100888.19;4977593;28;66052;-38
2021/08/15 05:26:15;;;;;;;21.50;5.23;;;;;;;32.17;55.48;100880.75;4968222;28;69201;-38
2021/08/15 05:28:45;;;;;;;26.95;6.18;;;;;;;32.09;54.12;100894.63;4974294;28;65649;-38
2021/08/15 05:31:16;;;;;;;24.65;5.75;;;;;;;31.95;53.94;100877.69;4972250;28;70214;-39
2021/08/15 05:33:46;;;;;;;18.85;5.15;;;;;;;31.95;52.94;100902.09;4975684;28;66631;-39
2021/08/15 05:36:17;;;;;;;9.32;5.07;;;;;;;31.87;52.34;100894.22;4977607;28;70056;-39
2021/08/15 05:38:47;;;;;;;12.00;5.32;;;;;;;31.77;51.70;100894.78;4979777;28;65363;-39
2021/08/15 05:41:18;;;;;;;14.88;4.78;;;;;;;31.71;51.06;100894.84;4975412;28;70380;-39
2021/08/15 05:43:48;;;;;;;15.60;4.90;;;;;;;31.63;50.55;100889.72;4975703;28;65187;-38
2021/08/15 05:46:19;;;;;;;5.03;4.13;;;;;;;31.52;49.42;100889.41;4980027;28;69833;-38
2021/08/15 05:48:50;;;;;;;6.35;4.13;;;;;;;31.48;49.43;100882.78;4972491;28;66208;-40
2021/08/15 05:51:20;;;;;;;4.28;3.95;;;;;;;31.44;48.36;100891.59;4968780;28;70515;-38
2021/08/15 05:53:50;;;;;;;4.18;3.72;;;;;;;31.42;49.26;100888.28;4967673;28;65469;-38
2021/08/15 05:56:21;;;;;;;4.40;4.07;;;;;;;31.35;48.22;100888.31;4982511;28;69241;-38
2021/08/15 05:58:52;;;;;;;4.07;3.78;;;;;;;31.27;47.55;100880.47;4970055;28;66549;-38
2021/08/15 06:01:23;;;;;;;8.25;3.85;;;;;;;31.21;47.62;100875.94;4970289;28;70495;-38
2021/08/15 06:03:53;;;;;;;4.05;3.42;;;;;;;31.24;46.52;100876.31;4987941;28;66301;-38
2021/08/15 06:06:24;;;;;;;3.85;3.55;;;;;;;31.23;46.94;100869.25;4972039;28;70101;-38
2021/08/15 06:08:54;;;;;;;4.35;3.45;;;;;;;31.09;46.50;100857.72;4969869;28;65795;-39
2021/08/15 06:11:25;;;;;;;9.55;3.47;;;;;;;31.14;46.12;100863.25;4967303;28;70987;-37
2021/08/15 06:13:57;;;;;;;8.05;3.17;;;;;;;31.11;45.55;100866.41;4963143;28;65587;-38
2021/08/15 06:16:28;;;;;;;7.63;2.97;;;;;;;31.08;46.09;100853.31;4972980;28;70270;-38
2021/08/15 06:18:58;;;;;;;4.93;2.97;;;;;;;31.10;45.66;100859.34;4972022;28;66265;-38
2021/08/15 06:21:29;;;;;;;6.70;3.40;;;;;;;31.09;44.91;100860.41;4974170;28;69068;-38
2021/08/15 06:23:59;;;;;;;3.00;2.70;;;;;;;31.09;44.63;100852.28;4974026;28;66350;-38
2021/08/15 06:26:30;;;;;;;5.43;3.05;;;;;;;31.05;43.72;100842.94;4977404;28;68423;-36
2021/08/15 06:29:01;;;;;;;3.58;2.78;;;;;;;31.05;44.01;100840.22;4989282;28;66360;-38
2021/08/15 06:31:32;;;;;;;9.00;2.88;;;;;;;31.08;44.74;100838.94;4962851;28;69228;-37
2021/08/15 06:34:03;;;;;;;8.10;3.28;;;;;;;31.05;44.41;100829.38;4997535;28;66158;-38
2021/08/15 06:36:33;;;;;;;7.78;3.38;;;;;;;31.07;44.56;100832.72;4981118;28;69985;-38
2021/08/15 06:39:07;;;;;;;4.55;2.80;;;;;;;31.06;44.26;100820.19;4976002;28;66385;-51
2021/08/15 06:41:37;;;;;;;3.47;3.17;;;;;;;31.03;43.83;100820.66;4977410;28;70141;-39
2021/08/15 06:44:08;;;;;;;6.68;3.10;;;;;;;31.06;44.26;100825.63;4974615;28;65010;-38
2021/08/15 06:46:39;;;;;;;3.95;2.90;;;;;;;31.05;44.03;100826.69;4986301;28;70102;-40
2021/08/15 06:49:09;;;;;;;5.82;2.85;;;;;;;31.06;44.41;100831.03;4965602;28;66931;-38
2021/08/15 06:51:40;;;;;;;7.90;2.88;;;;;;;31.06;43.72;100831.03;4977371;28;69549;-37
2021/08/15 06:54:34;;;;;;;6.50;2.30;;;;;;;30.96;41.99;100830.72;4984192;28;66255;-37
2021/08/15 06:57:24;;;;;;;3.92;2.72;;;;;;;30.81;43.58;100795.84;4972639;28;70438;-36
2021/08/15 06:59:54;;;;;;;5.28;2.85;;;;;;;31.03;43.27;100831.47;4982816;28;65254;-36
2021/08/15 07:02:25;;;;;;;3.28;2.58;;;;;;;31.01;42.93;100827.34;4981694;28;69867;-41
2021/08/15 07:04:56;;;;;;;7.43;2.92;;;;;;;31.01;43.08;100820.06;4984575;28;67202;-37
2021/08/15 07:07:26;;;;;;;2.50;2.30;;;;;;;31.03;43.09;100826.06;4980004;28;69515;-38
2021/08/15 07:09:56;;;;;;;2.92;2.63;;;;;;;31.03;43.31;100826.06;4979518;28;66476;-38
2021/08/15 07:12:27;;;;;;;2.85;2.65;;;;;;;30.97;42.52;100813.41;4996967;28;68993;-37
2021/08/15 07:14:57;;;;;;;4.32;2.17;;;;;;;31.04;42.79;100821.50;4984508;28;66275;-38
2021/08/15 07:17:29;;;;;;;5.22;2.30;;;;;;;31.03;42.14;100819.81;4988358;28;70236;-37
2021/08/15 07:19:59;;;;;;;5.00;2.97;;;;;;;31.01;42.83;100814.66;4967780;28;65531;-38
2021/08/15 07:22:30;;;;;;;2.90;2.70;;;;;;;31.03;42.44;100804.38;4971782;28;69760;-38
2021/08/15 07:25:01;;;;;;;5.45;2.70;;;;;;;31.02;42.42;100819.00;4974265;28;66188;-38
2021/08/15 07:27:34;;;;;;;3.30;2.25;;;;;;;31.01;42.37;100805.66;4989266;28;70109;-38
2021/08/15 07:30:05;;;;;;;2.50;2.30;;;;;;;31.01;41.79;100817.34;4984353;28;65322;-38
2021/08/15 07:32:35;;;;;;;5.78;2.70;;;;;;;30.93;42.66;100798.66;4982809;28;70635;-37
2021/08/15 07:35:07;;;;;;;5.50;2.55;;;;;;;31.01;41.67;100811.09;4978452;28;66541;-37
2021/08/15 07:37:37;;;;;;;2.88;2.28;;;;;;;31.02;42.07;100812.75;4981599;28;69361;-37
2021/08/15 07:40:08;;;;;;;5.35;2.47;;;;;;;31.02;41.94;100800.03;4981461;28;66361;-37
2021/08/15 07:42:39;;;;;;;2.40;2.15;;;;;;;31.01;41.33;100795.69;4988490;28;70397;-37
2021/08/15 07:45:09;;;;;;;2.55;2.35;;;;;;;31.05;41.88;100796.88;4964926;28;66457;-37
2021/08/15 07:47:40;;;;;;;2.78;2.58;;;;;;;31.03;41.61;100785.44;4981858;28;70755;-38
2021/08/15 07:50:11;;;;;;;2.85;2.65;;;;;;;31.03;42.00;100782.72;4968725;28;67167;-37
2021/08/15 07:52:43;;;;;;;5.40;2.85;;;;;;;31.05;41.54;100790.63;4995220;28;70855;-37
2021/08/15 07:55:13;;;;;;;2.63;2.43;;;;;;;31.02;41.20;100781.06;4984355;28;66424;-37
2021/08/15 07:57:44;;;;;;;2.70;2.50;;;;;;;31.04;41.58;100784.41;4977556;28;70229;-37
2021/08/15 08:00:14;;;;;;;3.60;2.55;;;;;;;31.01;41.18;100775.88;4976125;28;66650;-37
2021/08/15 08:02:45;;;;;;;2.47;2.28;;;;;;;31.04;41.71;100778.97;4973480;28;69662;-38
2021/08/15 08:05:16;;;;;;;3.38;2.63;;;;;;;31.03;41.68;100761.03;4981099;28;66271;-37
2021/08/15 08:07:47;;;;;;;6.90;2.03;;;;;;;31.05;41.75;100769.78;4968526;28;70272;-37
2021/08/15 08:10:18;;;;;;;3.97;2.03;;;;;;;31.05;42.14;100767.06;4977916;28;65300;-37
2021/08/15 08:12:49;;;;;;;6.47;2.45;;;;;;;31.02;41.30;100767.53;4975732;28;69242;-37
2021/08/15 08:15:20;;;;;;;8.02;2.25;;;;;;;31.06;41.96;100760.59;4976746;28;66504;-37
2021/08/15 08:17:50;;;;;;;9.80;2.38;;;;;;;30.96;42.75;100749.47;4979114;28;70297;-38
2021/08/15 08:20:27;;;;;;;11.25;2.17;;;;;;;31.06;43.59;100757.06;4973926;28;66254;-38
2021/08/15 08:22:57;;;;;;;2.93;2.50;;;;;;;30.92;44.24;100732.84;4974731;28;70003;-37
2021/08/15 08:25:27;;;;;;;5.90;2.97;;;;;;;31.11;44.13;100747.22;4978164;28;66053;-38
2021/08/15 08:27:59;;;;;;;14.93;2.35;;;;;;;31.12;44.00;100742.59;4982185;28;69403;-36
2021/08/15 08:30:30;;;;;;;5.63;2.80;;;;;;;31.17;44.06;100745.47;4959257;28;65668;-38
2021/08/15 08:33:01;;;;;;;9.23;2.90;;;;;;;31.23;45.19;100755.44;4981888;28;70139;-37
2021/08/15 08:35:32;;;;;;;11.77;2.25;;;;;;;31.28;46.48;100735.78;4978660;28;66647;-38
2021/08/15 08:38:03;;;;;;;2.90;2.20;;;;;;;31.46;46.78;100743.94;4982651;28;70064;-38
2021/08/15 08:40:34;;;;;;;8.63;2.83;;;;;;;31.56;47.39;100746.91;4988868;28;66169;-39
2021/08/15 08:43:04;;;;;;;12.90;2.72;;;;;;;31.68;47.32;100751.56;4972216;28;70053;-39
2021/08/15 08:45:39;;;;;;;6.57;2.67;;;;;;;31.76;47.12;100748.53;4983147;28;65482;-38
2021/08/15 08:48:10;;;;;;;3.55;2.88;;;;;;;31.85;48.02;100754.50;4978972;28;70783;-36
2021/08/15 08:50:41;;;;;;;11.13;3.80;;;;;;;31.95;49.30;100763.72;4976155;28;66513;-38
2021/08/15 08:53:12;;;;;;;10.30;4.28;;;;;;;31.95;51.89;100752.06;4984231;28;70876;-38
2021/08/15 08:55:43;;;;;;;17.90;5.03;;;;;;;32.17;51.27;100765.94;4978406;28;66246;-37
2021/08/15 08:58:13;;;;;;;8.80;4.95;;;;;;;32.20;52.06;100771.72;4980076;28;69302;-37
2021/08/15 09:00:44;;;;;;;5.05;4.63;;;;;;;32.30;51.65;100775.78;5000277;28;65777;-38
2021/08/15 09:03:15;;;;;;;4.47;4.07;;;;;;;32.27;52.06;100760.78;4994870;28;69505;-38
2021/08/15 09:05:54;;;;;;;17.42;4.40;;;;;;;32.15;54.12;100735.47;4972486;28;65963;-38
2021/08/15 09:08:33;;;;;;;21.45;4.78;;;;;;;32.42;54.08;100766.56;4988170;28;70105;-37
2021/08/15 09:11:23;;;;;;;11.18;4.85;;;;;;;32.49;55.83;100778.19;4985496;28;66073;-39
2021/08/15 09:14:11;;;;;;;6.25;5.28;;;;;;;32.18;55.23;100718.72;4979972;28;70403;-37
2021/08/15 09:17:02;;;;;;;14.10;6.10;;;;;;;32.37;55.43;100744.72;4974085;28;65213;-38
2021/08/15 09:19:41;;;;;;;7.07;5.85;;;;;;;32.34;53.95;100722.66;4968464;28;69213;-37
2021/08/15 09:22:23;;;;;;;12.13;5.80;;;;;;;32.70;52.81;100781.41;4975891;28;66301;-39
2021/08/15 09:24:59;;;;;;;;;;;;;;;32.34;54.81;100777.78;4974357;28;70123;-38
2021/08/15 09:27:36;;;;;;;19.50;5.65;;;;;;;32.70;54.58;100789.53;4972942;28;66484;-38
2021/08/15 09:30:39;;;;;;;12.88;6.38;;;;;;;32.61;56.19;100790.97;4973571;28;69236;-38
2021/08/15 09:33:19;;;;;;;12.38;6.57;;;;;;;32.55;55.35;100762.03;4929077;28;66267;-38
2021/08/15 09:35:51;;;;;;;14.43;7.13;;;;;;;32.81;54.44;100791.44;4972046;28;68820;-38
2021/08/15 09:38:21;;;;;;;16.25;7.25;;;;;;;32.82;54.32;100792.25;4975882;28;66316;-39
2021/08/15 09:40:54;;;;;;;7.97;6.65;;;;;;;32.77;54.25;100787.56;4972343;28;70153;-38
2021/08/15 09:43:27;;;;;;;16.80;6.93;;;;;;;32.56;53.48;100750.09;4973821;28;66408;-38
2021/08/15 09:45:59;;;;;;;7.03;6.32;;;;;;;32.88;53.94;100797.59;4954315;28;69721;-40
2021/08/15 09:48:40;;;;;;;9.07;7.13;;;;;;;32.89;53.72;100791.09;4972413;28;66401;-38
2021/08/15 09:51:22;;;;;;;9.35;6.25;;;;;;;32.59;54.99;100736.03;4986770;28;70245;-39
2021/08/15 09:53:55;;;;;;;40.75;7.68;;;;;;;32.97;54.95;100789.91;4972538;28;66910;-39
2021/08/15 09:56:36;;;;;;;22.25;7.53;;;;;;;33.01;56.25;100793.81;4976285;28;69440;-45
2021/08/15 10:04:06;;;;;;;23.60;10.95;;;;;;;32.93;57.65;100800.44;5016503;27;2954465;-41
2021/08/15 10:06:39;;;;;;;25.27;10.98;;;;;;;33.00;56.58;100807.66;5099846;27;70253;-36
2021/08/15 10:09:09;;;;;;;24.65;10.55;;;;;;;33.01;60.08;100793.00;5108055;27;66568;-31
2021/08/15 10:11:41;;;;;;;19.25;10.45;;;;;;;33.17;57.63;100802.34;5087594;27;69202;-29
2021/08/15 10:14:13;;;;;;;20.88;10.15;;;;;;;33.27;56.73;100808.84;5108045;27;66784;-30
2021/08/15 10:16:46;;;;;;;14.13;8.82;;;;;;;33.31;56.13;100807.28;5088380;27;70574;-28
2021/08/15 10:19:25;;;;;;;11.82;7.40;;;;;;;33.40;55.84;100812.34;5100028;27;66534;-29
2021/08/15 10:21:57;;;;;;;11.57;7.65;;;;;;;33.42;55.28;100815.66;5103401;27;69845;-28
2021/08/15 10:25:07;;;;;;;9.55;7.15;;;;;;;33.45;54.90;100817.91;5109522;27;66837;-29
2021/08/15 10:27:48;;;;;;;9.85;7.38;;;;;;;33.53;55.21;100820.28;5028802;28;69376;-29
2021/08/15 10:30:24;;;;;;;10.50;8.37;;;;;;;33.57;54.59;100818.72;5098187;27;65332;-29
2021/08/15 10:32:55;;;;;;;9.50;8.57;;;;;;;33.61;54.70;100830.78;5104131;27;70413;-30
2021/08/15 10:35:25;;;;;;;10.88;8.07;;;;;;;33.63;54.20;100838.69;5106518;27;67566;-29
2021/08/15 10:37:59;;;;;;;12.18;8.52;;;;;;;33.66;54.10;100839.06;5104632;27;69379;-29
2021/08/15 10:40:42;;;;;;;8.70;7.97;;;;;;;33.66;53.57;100851.84;5103945;27;66127;-30
2021/08/15 10:43:22;;;;;;;7.13;6.63;;;;;;;33.67;53.65;100857.03;5103117;27;69975;-30
2021/08/15 10:46:12;;;;;;;6.22;5.75;;;;;;;33.68;54.28;100866.81;5085166;27;66319;-30
2021/08/15 10:48:54;;;;;;;9.82;5.88;;;;;;;33.64;54.35;100867.56;5088829;27;69940;-30
2021/08/15 10:51:38;;;;;;;5.78;5.38;;;;;;;33.47;54.68;100840.25;5085561;27;65661;-29
2021/08/15 10:54:29;;;;;;;5.88;5.50;;;;;;;33.71;55.24;100885.41;5099891;27;70030;-28
2021/08/15 10:57:04;;;;;;;4.85;4.45;;;;;;;33.58;55.09;100861.19;5097344;27;66576;-29
2021/08/15 10:59:39;;;;;;;5.35;4.93;;;;;;;33.81;55.21;100885.59;5103897;27;70935;-29
2021/08/15 11:02:12;;;;;;;5.22;4.75;;;;;;;33.78;55.60;100886.09;5087125;27;66079;-30
2021/08/15 11:04:56;;;;;;;5.00;4.60;;;;;;;33.77;55.48;100884.44;5105643;27;69407;-28
2021/08/15 11:07:40;;;;;;;5.13;4.82;;;;;;;33.52;55.46;100848.53;5103000;27;65709;-30
2021/08/15 11:10:13;;;;;;;4.80;4.50;;;;;;;33.80;55.23;100883.97;5078042;27;70633;-29
2021/08/15 11:13:22;;;;;;;6.07;4.05;;;;;;;33.75;55.84;100883.84;5085293;27;65946;-29
2021/08/15 11:15:52;;;;;;;4.88;4.47;;;;;;;33.78;55.73;100875.22;5064521;27;70090;-30
2021/08/15 11:18:23;;;;;;;4.80;4.40;;;;;;;33.81;55.75;100882.06;5069660;27;67322;-30
2021/08/15 11:20:54;;;;;;;5.03;4.72;;;;;;;33.81;55.99;100874.72;5066301;27;70177;-29
2021/08/15 11:23:28;;;;;;;5.32;4.93;;;;;;;33.85;55.89;100874.25;5088092;27;64930;-29
2021/08/15 11:26:10;;;;;;;5.70;5.30;;;;;;;33.85;56.26;100868.78;5077333;27;69359;-29
2021/08/15 11:28:42;;;;;;;5.40;5.10;;;;;;;33.86;56.38;100875.91;5090969;27;66185;-28
2021/08/15 11:31:13;;;;;;;7.53;5.38;;;;;;;33.85;56.19;100874.25;5086394;27;69352;-30
2021/08/15 11:33:45;;;;;;;5.10;4.70;;;;;;;33.83;56.62;100873.69;5095297;27;65257;-30
2021/08/15 11:36:15;;;;;;;5.25;4.75;;;;;;;33.57;56.36;100837.75;5089498;27;70239;-29
2021/08/15 11:38:50;;;;;;;5.25;4.90;;;;;;;33.67;56.58;100857.03;5094193;27;65728;-29
2021/08/15 11:41:25;;;;;;;5.25;4.85;;;;;;;33.84;56.15;100888.91;5087626;27;69309;-34
2021/08/15 11:43:56;;;;;;;4.95;4.55;;;;;;;33.79;56.40;100898.66;5060446;27;66175;-31
2021/08/15 11:46:27;;;;;;;5.15;4.85;;;;;;;33.77;56.42;100906.22;5082498;27;69735;-28
2021/08/15 11:48:57;;;;;;;4.80;4.50;;;;;;;33.76;56.26;100892.84;5045966;27;65394;-28
2021/08/15 11:51:28;;;;;;;4.30;4.00;;;;;;;33.78;56.16;100902.41;5088199;27;69971;-29
2021/08/15 11:53:58;;;;;;;4.30;4.00;;;;;;;33.78;56.14;100899.69;5067660;27;64791;-29